createdAt,value
2022-10-12T00:01:59.505Z,0.90
2022-10-12T00:04:25.936Z,1.47
2022-10-12T00:06:52.320Z,1.03
2022-10-12T00:09:18.730Z,1.80
2022-10-12T00:11:45.116Z,1.13
2022-10-12T00:14:11.489Z,0.90
2022-10-12T00:16:38.012Z,1.00
2022-10-12T00:19:04.420Z,1.00
2022-10-12T00:21:30.998Z,1.00
2022-10-12T00:23:58.582Z,1.00
2022-10-12T00:26:25.215Z,1.00
2022-10-12T00:28:57.273Z,1.00
2022-10-12T00:31:23.995Z,1.03
2022-10-12T00:33:50.403Z,1.00
2022-10-12T00:36:24.823Z,1.07
2022-10-12T00:38:51.957Z,1.10
2022-10-12T00:41:19.487Z,1.10
2022-10-12T00:43:46.156Z,1.37
2022-10-12T00:46:30.926Z,1.10
2022-10-12T00:48:59.885Z,1.10
2022-10-12T00:51:26.266Z,1.53
2022-10-12T00:53:56.825Z,1.00
2022-10-12T00:56:24.229Z,1.30
2022-10-12T00:58:50.730Z,1.27
2022-10-12T01:01:17.165Z,1.10
2022-10-12T01:03:43.730Z,1.53
2022-10-12T01:06:10.125Z,1.00
2022-10-12T01:08:39.192Z,1.20
2022-10-12T01:11:05.742Z,1.00
2022-10-12T01:13:32.163Z,1.10
2022-10-12T01:16:06.386Z,1.47
2022-10-12T01:18:39.976Z,1.10
2022-10-12T01:21:11.242Z,1.10
2022-10-12T01:23:49.714Z,1.20
2022-10-12T01:26:34.840Z,1.10
2022-10-12T01:29:19.444Z,1.10
2022-10-12T01:32:01.226Z,1.00
2022-10-12T01:34:43.287Z,0.93
2022-10-12T01:37:11.793Z,1.00
2022-10-12T01:39:44.067Z,1.17
2022-10-12T01:42:20.667Z,1.10
2022-10-12T01:44:47.079Z,1.10
2022-10-12T01:47:13.574Z,1.10
2022-10-12T01:49:39.955Z,1.00
2022-10-12T01:52:28.111Z,1.13
2022-10-12T01:55:18.220Z,1.27
2022-10-12T01:57:53.491Z,1.00
2022-10-12T02:00:20.281Z,1.10
2022-10-12T02:03:13.605Z,1.10
2022-10-12T02:05:54.657Z,1.13
2022-10-12T02:08:28.081Z,1.00
2022-10-12T02:11:00.522Z,1.30
2022-10-12T02:13:28.371Z,1.00
2022-10-12T02:15:54.799Z,1.00
2022-10-12T02:18:21.156Z,1.00
2022-10-12T02:20:47.980Z,1.00
2022-10-12T02:23:14.795Z,1.00
2022-10-12T02:25:41.184Z,1.17
2022-10-12T02:28:10.105Z,1.00
2022-10-12T02:30:51.632Z,1.00
2022-10-12T02:33:23.980Z,1.00
2022-10-12T02:36:18.223Z,1.00
2022-10-12T02:38:52.246Z,1.00
2022-10-12T02:41:21.379Z,1.00
2022-10-12T02:43:50.973Z,0.90
2022-10-12T02:46:17.326Z,1.00
2022-10-12T02:48:43.733Z,1.20
2022-10-12T02:51:10.126Z,2.03
2022-10-12T02:53:36.563Z,1.03
2022-10-12T02:56:05.481Z,1.10
2022-10-12T02:58:31.990Z,1.00
2022-10-12T03:00:58.425Z,1.00
2022-10-12T03:03:25.127Z,1.10
2022-10-12T03:05:51.523Z,1.10
2022-10-12T03:08:17.914Z,1.10
2022-10-12T03:10:44.304Z,1.13
2022-10-12T03:13:10.718Z,1.00
2022-10-12T03:15:37.115Z,1.20
2022-10-12T03:18:03.704Z,1.00
2022-10-12T03:20:30.091Z,1.03
2022-10-12T03:22:56.597Z,1.60
2022-10-12T03:25:22.977Z,1.00
2022-10-12T03:27:49.385Z,1.00
2022-10-12T03:30:15.875Z,1.10
2022-10-12T03:32:42.296Z,1.03
2022-10-12T03:35:09.128Z,1.03
2022-10-12T03:37:35.752Z,1.03
2022-10-12T03:40:02.385Z,1.00
2022-10-12T03:42:28.779Z,1.30
2022-10-12T03:44:55.139Z,0.90
2022-10-12T03:47:21.515Z,1.00
2022-10-12T03:49:47.889Z,1.00
2022-10-12T03:52:14.314Z,1.00
2022-10-12T03:54:40.684Z,1.10
2022-10-12T03:57:07.047Z,1.27
2022-10-12T03:59:33.482Z,1.10
2022-10-12T04:01:59.864Z,1.00
2022-10-12T04:04:26.252Z,1.10
2022-10-12T04:06:52.618Z,1.00
2022-10-12T04:09:18.990Z,1.10
2022-10-12T04:11:45.374Z,1.10
2022-10-12T04:14:11.763Z,1.87
2022-10-12T04:16:38.159Z,1.00
2022-10-12T04:19:04.540Z,0.90
2022-10-12T04:21:31.166Z,1.20
2022-10-12T04:23:57.562Z,1.10
2022-10-12T04:26:23.974Z,1.10
2022-10-12T04:28:50.394Z,1.10
2022-10-12T04:31:16.840Z,1.10
2022-10-12T04:33:43.241Z,1.20
2022-10-12T04:36:10.855Z,1.00
2022-10-12T04:38:37.308Z,1.10
2022-10-12T04:41:03.828Z,1.00
2022-10-12T04:43:30.213Z,1.00
2022-10-12T04:45:57.424Z,1.00
2022-10-12T04:48:23.897Z,1.10
2022-10-12T04:50:50.424Z,1.00
2022-10-12T04:53:16.845Z,1.57
2022-10-12T04:55:43.325Z,1.13
2022-10-12T04:58:09.734Z,1.00
2022-10-12T05:00:36.144Z,1.10
2022-10-12T05:03:02.507Z,1.00
2022-10-12T05:05:28.897Z,1.00
2022-10-12T05:07:55.377Z,1.20
2022-10-12T05:10:21.780Z,1.10
2022-10-12T05:12:48.155Z,1.20
2022-10-12T05:15:14.614Z,1.10
2022-10-12T05:17:41.203Z,1.00
2022-10-12T05:20:08.564Z,1.10
2022-10-12T05:22:34.969Z,1.00
2022-10-12T05:25:01.432Z,1.70
2022-10-12T05:27:27.835Z,1.10
2022-10-12T05:29:54.237Z,1.00
2022-10-12T05:32:20.614Z,1.00
2022-10-12T05:34:46.990Z,1.00
2022-10-12T05:37:13.482Z,1.30
2022-10-12T05:39:39.845Z,1.00
2022-10-12T05:42:06.357Z,1.10
2022-10-12T05:44:32.729Z,1.10
2022-10-12T05:46:59.157Z,1.00
2022-10-12T05:49:25.543Z,1.10
2022-10-12T05:51:52.023Z,1.10
2022-10-12T05:54:18.385Z,1.10
2022-10-12T05:56:44.753Z,1.00
2022-10-12T05:59:11.552Z,1.10
2022-10-12T06:01:37.954Z,1.10
2022-10-12T06:04:04.506Z,1.10
2022-10-12T06:06:30.935Z,1.10
2022-10-12T06:08:57.318Z,1.43
2022-10-12T06:11:23.717Z,1.00
2022-10-12T06:13:50.136Z,1.10
2022-10-12T06:16:16.507Z,1.00
2022-10-12T06:18:42.908Z,1.10
2022-10-12T06:21:28.798Z,1.30
2022-10-12T06:23:55.642Z,1.17
2022-10-12T06:26:22.047Z,1.20
2022-10-12T06:28:48.573Z,1.10
2022-10-12T06:31:14.989Z,1.10
2022-10-12T06:33:41.374Z,1.00
2022-10-12T06:36:07.846Z,1.00
2022-10-12T06:38:34.225Z,0.90
2022-10-12T06:41:00.705Z,1.00
2022-10-12T06:43:27.087Z,1.10
2022-10-12T06:45:53.483Z,1.23
2022-10-12T06:48:19.873Z,1.00
2022-10-12T06:50:46.742Z,1.00
2022-10-12T06:53:13.111Z,1.00
2022-10-12T06:55:40.418Z,1.00
2022-10-12T06:58:06.790Z,1.00
2022-10-12T07:00:33.232Z,1.00
2022-10-12T07:02:59.685Z,1.10
2022-10-12T07:05:26.155Z,1.00
2022-10-12T07:07:52.587Z,1.30
2022-10-12T07:10:19.227Z,1.00
2022-10-12T07:12:45.622Z,1.00
2022-10-12T07:15:12.017Z,1.00
2022-10-12T07:17:38.693Z,1.20
2022-10-12T07:20:06.176Z,1.00
2022-10-12T07:22:32.647Z,0.90
2022-10-12T07:24:59.435Z,0.90
2022-10-12T07:27:25.873Z,1.00
2022-10-12T07:29:52.249Z,1.00
2022-10-12T07:32:18.662Z,1.10
2022-10-12T07:34:45.079Z,1.00
2022-10-12T07:37:11.525Z,1.03
2022-10-12T07:39:38.077Z,1.00
2022-10-12T07:42:04.579Z,1.10
2022-10-12T07:44:31.582Z,1.00
2022-10-12T07:46:58.419Z,1.00
2022-10-12T07:49:24.796Z,0.90
2022-10-12T07:51:51.151Z,1.00
2022-10-12T07:54:21.822Z,1.03
2022-10-12T07:56:50.023Z,1.00
2022-10-12T07:59:16.452Z,1.00
2022-10-12T08:01:42.872Z,1.20
2022-10-12T08:04:09.671Z,1.00
2022-10-12T08:06:36.062Z,1.00
2022-10-12T08:09:02.776Z,0.90
2022-10-12T08:11:29.334Z,0.90
2022-10-12T08:13:56.162Z,0.90
2022-10-12T08:16:22.673Z,1.20
2022-10-12T08:18:49.187Z,1.00
2022-10-12T08:21:16.029Z,2.37
2022-10-12T08:23:44.543Z,1.10
2022-10-12T08:26:11.173Z,0.90
2022-10-12T08:28:37.593Z,1.30
2022-10-12T08:31:12.711Z,1.00
2022-10-12T08:33:39.438Z,0.90
2022-10-12T08:36:06.532Z,1.07
2022-10-12T08:38:33.619Z,1.00
2022-10-12T08:41:23.786Z,1.00
2022-10-12T08:44:24.039Z,0.93
2022-10-12T08:46:50.498Z,1.00
2022-10-12T08:49:19.402Z,1.10
2022-10-12T08:51:53.418Z,0.90
2022-10-12T08:54:21.047Z,1.00
2022-10-12T08:56:47.465Z,0.97
2022-10-12T08:59:17.693Z,0.83
2022-10-12T09:02:13.637Z,1.10
2022-10-12T09:04:59.917Z,1.13
2022-10-12T09:07:28.169Z,0.80
2022-10-12T09:10:29.802Z,1.07
2022-10-12T09:13:20.878Z,1.10
2022-10-12T09:16:19.660Z,0.90
2022-10-12T09:18:46.897Z,0.90
2022-10-12T09:21:18.341Z,0.80
2022-10-12T09:23:44.836Z,0.80
2022-10-12T09:26:34.605Z,0.90
2022-10-12T09:29:02.146Z,0.80
2022-10-12T09:31:49.800Z,0.70
2022-10-12T09:34:19.233Z,0.80
2022-10-12T09:36:45.818Z,0.80
2022-10-12T09:39:32.527Z,0.90
2022-10-12T09:41:58.910Z,0.80
2022-10-12T09:44:40.323Z,0.90
2022-10-12T09:47:29.238Z,1.30
2022-10-12T09:49:58.758Z,0.80
2022-10-12T09:52:28.420Z,0.80
2022-10-12T09:55:05.933Z,0.80
2022-10-12T09:57:42.640Z,0.90
2022-10-12T10:00:27.161Z,0.80
2022-10-12T10:02:54.029Z,0.80
2022-10-12T10:05:27.675Z,0.80
2022-10-12T10:07:58.545Z,0.90
2022-10-12T10:10:29.885Z,1.47
2022-10-12T10:13:01.467Z,0.70
2022-10-12T10:15:35.562Z,0.80
2022-10-12T10:18:03.405Z,0.70
2022-10-12T10:20:40.591Z,0.90
2022-10-12T10:23:06.997Z,0.70
2022-10-12T10:25:33.553Z,0.80
2022-10-12T10:28:23.497Z,0.60
2022-10-12T10:31:17.278Z,0.70
2022-10-12T10:33:43.871Z,0.60
2022-10-12T10:36:23.870Z,0.70
2022-10-12T10:38:53.300Z,0.70
2022-10-12T10:41:19.951Z,0.70
2022-10-12T10:43:47.271Z,0.60
2022-10-12T10:46:13.667Z,0.67
2022-10-12T10:48:53.571Z,0.60
2022-10-12T10:51:19.951Z,0.70
2022-10-12T10:53:47.855Z,0.60
2022-10-12T10:56:17.263Z,0.60
2022-10-12T10:58:45.092Z,1.53
2022-10-12T11:01:15.912Z,0.60
2022-10-12T11:03:51.468Z,0.60
2022-10-12T11:06:34.244Z,0.97
2022-10-12T11:09:29.711Z,0.60
2022-10-12T11:12:05.657Z,0.50
2022-10-12T11:14:40.717Z,0.60
2022-10-12T11:17:11.441Z,0.50
2022-10-12T11:19:42.658Z,0.57
2022-10-12T11:22:19.168Z,0.60
2022-10-12T11:24:51.113Z,0.60
2022-10-12T11:27:25.164Z,1.17
2022-10-12T11:30:02.937Z,0.50
2022-10-12T11:32:40.540Z,0.50
2022-10-12T11:35:07.575Z,0.53
2022-10-12T11:37:43.499Z,0.70
2022-10-12T11:40:27.026Z,0.60
2022-10-12T11:43:10.634Z,0.60
2022-10-12T11:45:39.600Z,0.50
2022-10-12T11:48:10.414Z,0.50
2022-10-12T11:50:44.998Z,0.60
2022-10-12T11:53:34.908Z,0.57
2022-10-12T11:56:08.683Z,0.50
2022-10-12T11:58:59.962Z,0.90
2022-10-12T12:01:29.797Z,0.50
2022-10-12T12:04:42.542Z,0.50
2022-10-12T12:07:40.959Z,0.40
2022-10-12T12:10:25.517Z,0.40
2022-10-12T12:13:13.456Z,0.50
2022-10-12T12:15:40.892Z,0.50
2022-10-12T12:18:10.892Z,0.50
2022-10-12T12:20:43.182Z,0.40
2022-10-12T12:23:21.252Z,0.50
2022-10-12T12:25:47.943Z,0.47
2022-10-12T12:28:22.096Z,0.40
2022-10-12T12:31:01.733Z,0.40
2022-10-12T12:33:32.584Z,0.43
2022-10-12T12:36:04.742Z,0.53
2022-10-12T12:38:51.449Z,0.43
2022-10-12T12:41:19.167Z,0.50
2022-10-12T12:43:45.574Z,0.53
2022-10-12T12:46:13.180Z,0.50
2022-10-12T12:48:39.620Z,0.47
2022-10-12T12:51:06.783Z,0.50
2022-10-12T12:53:33.158Z,0.40
2022-10-12T12:56:04.102Z,0.63
2022-10-12T12:58:52.475Z,0.50
2022-10-12T13:01:53.162Z,0.40
2022-10-12T13:04:19.571Z,0.50
2022-10-12T13:07:07.250Z,0.93
2022-10-12T13:09:33.603Z,0.60
2022-10-12T13:12:03.012Z,0.83
2022-10-12T13:14:55.540Z,0.50
2022-10-12T13:17:50.688Z,0.50
2022-10-12T13:20:19.768Z,0.47
2022-10-12T13:22:46.622Z,0.40
2022-10-12T13:25:28.013Z,0.50
2022-10-12T13:27:54.503Z,0.40
2022-10-12T13:30:23.710Z,0.50
2022-10-12T13:33:32.148Z,0.50
2022-10-12T13:36:05.147Z,0.63
2022-10-12T13:38:31.766Z,0.53
2022-10-12T13:41:06.032Z,0.40
2022-10-12T13:43:44.836Z,0.50
2022-10-12T13:46:41.528Z,0.60
2022-10-12T13:49:17.189Z,0.40
2022-10-12T13:51:44.978Z,0.43
2022-10-12T13:54:21.061Z,0.60
2022-10-12T13:56:48.723Z,0.87
2022-10-12T13:59:20.566Z,0.70
2022-10-12T14:01:57.060Z,0.50
2022-10-12T14:04:26.113Z,0.57
2022-10-12T14:07:06.927Z,0.50
2022-10-12T14:09:42.208Z,0.40
2022-10-12T14:12:09.279Z,0.40
2022-10-12T14:14:36.398Z,0.50
2022-10-12T14:17:03.069Z,0.53
2022-10-12T14:19:39.604Z,0.60
2022-10-12T14:22:06.017Z,0.50
2022-10-12T14:24:32.488Z,0.50
2022-10-12T14:27:00.335Z,0.60
2022-10-12T14:29:39.131Z,0.50
2022-10-12T14:32:37.216Z,0.40
2022-10-12T14:35:29.817Z,0.50
2022-10-12T14:37:56.316Z,0.40
2022-10-12T14:40:27.516Z,0.60
2022-10-12T14:43:14.143Z,0.50
2022-10-12T14:45:40.735Z,0.40
2022-10-12T14:48:13.933Z,0.60
2022-10-12T14:50:40.318Z,0.83
2022-10-12T14:53:10.049Z,0.57
2022-10-12T14:55:36.474Z,0.50
2022-10-12T14:58:03.693Z,0.50
2022-10-12T15:00:32.199Z,0.50
2022-10-12T15:02:59.038Z,0.80
2022-10-12T15:05:26.173Z,0.50
2022-10-12T15:07:52.624Z,0.50
2022-10-12T15:10:20.883Z,0.70
2022-10-12T15:12:47.344Z,0.40
2022-10-12T15:15:32.508Z,0.50
2022-10-12T15:17:59.081Z,0.50
2022-10-12T15:20:26.814Z,0.50
2022-10-12T15:22:53.252Z,0.50
2022-10-12T15:25:35.142Z,0.60
2022-10-12T15:28:02.235Z,0.50
2022-10-12T15:30:28.593Z,0.40
2022-10-12T15:32:55.035Z,0.50
2022-10-12T15:35:23.203Z,0.63
2022-10-12T15:37:49.755Z,0.60
2022-10-12T15:40:17.122Z,0.50
2022-10-12T15:42:43.628Z,0.50
2022-10-12T15:45:22.172Z,0.50
2022-10-12T15:47:49.254Z,0.53
2022-10-12T15:50:16.025Z,0.50
2022-10-12T15:52:42.578Z,0.70
2022-10-12T15:55:28.747Z,0.53
2022-10-12T15:57:55.201Z,0.90
2022-10-12T16:00:22.981Z,0.50
2022-10-12T16:02:49.444Z,0.60
2022-10-12T16:05:21.557Z,0.60
2022-10-12T16:07:48.054Z,0.80
2022-10-12T16:10:15.415Z,1.10
2022-10-12T16:12:43.166Z,0.90
2022-10-12T16:15:11.296Z,0.50
2022-10-12T16:17:37.715Z,0.70
2022-10-12T16:20:05.106Z,0.50
2022-10-12T16:22:31.490Z,0.50
2022-10-12T16:24:57.879Z,0.60
2022-10-12T16:27:24.373Z,0.50
2022-10-12T16:29:50.785Z,0.70
2022-10-12T16:32:17.334Z,0.70
2022-10-12T16:34:43.867Z,0.50
2022-10-12T16:37:10.407Z,0.60
2022-10-12T16:39:36.777Z,0.70
2022-10-12T16:42:03.156Z,0.60
2022-10-12T16:44:29.698Z,0.60
2022-10-12T16:46:56.066Z,1.53
2022-10-12T16:49:22.533Z,0.70
2022-10-12T16:51:49.275Z,0.90
2022-10-12T16:54:15.723Z,0.70
2022-10-12T16:56:42.111Z,0.70
2022-10-12T16:59:08.592Z,0.60
2022-10-12T17:01:35.029Z,0.93
2022-10-12T17:04:02.109Z,0.60
2022-10-12T17:06:29.372Z,0.60
2022-10-12T17:08:59.203Z,0.90
2022-10-12T17:11:25.624Z,0.70
2022-10-12T17:13:52.202Z,0.60
2022-10-12T17:16:37.148Z,0.70
2022-10-12T17:19:03.588Z,0.63
2022-10-12T17:21:30.085Z,0.90
2022-10-12T17:23:57.467Z,1.33
2022-10-12T17:26:23.883Z,0.70
2022-10-12T17:28:50.330Z,1.03
2022-10-12T17:31:16.902Z,0.80
2022-10-12T17:33:43.301Z,0.80
2022-10-12T17:36:10.344Z,0.90
2022-10-12T17:38:36.864Z,0.80
2022-10-12T17:41:03.917Z,0.73
2022-10-12T17:43:30.620Z,0.93
2022-10-12T17:45:57.026Z,0.80
2022-10-12T17:48:23.442Z,1.00
2022-10-12T17:50:49.960Z,1.27
2022-10-12T17:53:16.458Z,0.80
2022-10-12T17:55:48.565Z,0.80
2022-10-12T17:58:15.554Z,1.20
2022-10-12T18:00:42.106Z,1.10
2022-10-12T18:03:08.574Z,1.07
2022-10-12T18:05:34.953Z,1.17
2022-10-12T18:08:01.418Z,1.03
2022-10-12T18:10:28.645Z,2.30
2022-10-12T18:12:55.293Z,1.67
2022-10-12T18:15:23.068Z,0.90
2022-10-12T18:17:50.161Z,1.00
2022-10-12T18:20:18.416Z,0.80
2022-10-12T18:22:44.987Z,1.10
2022-10-12T18:25:11.387Z,1.03
2022-10-12T18:27:37.793Z,1.10
2022-10-12T18:30:04.984Z,0.80
2022-10-12T18:32:31.394Z,1.00
2022-10-12T18:34:58.231Z,1.13
2022-10-12T18:37:24.633Z,0.80
2022-10-12T18:39:51.019Z,1.10
2022-10-12T18:42:17.740Z,0.90
2022-10-12T18:44:44.882Z,0.80
2022-10-12T18:47:11.260Z,1.30
2022-10-12T18:49:37.709Z,0.90
2022-10-12T18:52:04.195Z,0.93
2022-10-12T18:54:30.643Z,1.00
2022-10-12T18:56:57.021Z,0.80
2022-10-12T18:59:23.427Z,1.07
2022-10-12T19:01:49.813Z,1.10
2022-10-12T19:04:16.615Z,0.80
2022-10-12T19:06:43.317Z,0.83
2022-10-12T19:09:12.448Z,1.20
2022-10-12T19:11:38.964Z,0.83
2022-10-12T19:14:07.423Z,1.00
2022-10-12T19:16:34.270Z,1.47
2022-10-12T19:19:02.262Z,1.80
2022-10-12T19:21:28.764Z,1.50
2022-10-12T19:23:55.191Z,1.27
2022-10-12T19:26:23.274Z,1.00
2022-10-12T19:28:50.404Z,1.37
2022-10-12T19:31:18.953Z,1.30
2022-10-12T19:33:45.673Z,1.33
2022-10-12T19:36:13.015Z,1.00
2022-10-12T19:38:39.556Z,1.70
2022-10-12T19:41:06.014Z,1.03
2022-10-12T19:43:33.499Z,1.00
2022-10-12T19:46:03.961Z,1.00
2022-10-12T19:48:30.331Z,1.37
2022-10-12T19:50:58.746Z,1.10
2022-10-12T19:53:25.167Z,0.93
2022-10-12T19:55:51.561Z,1.73
2022-10-12T19:58:18.234Z,1.03
2022-10-12T20:00:44.686Z,1.30
2022-10-12T20:03:11.098Z,1.10
2022-10-12T20:05:37.490Z,0.90
2022-10-12T20:08:03.881Z,0.90
2022-10-12T20:10:30.258Z,1.00
2022-10-12T20:12:56.644Z,1.10
2022-10-12T20:15:23.034Z,1.07
2022-10-12T20:17:49.400Z,1.17
2022-10-12T20:20:16.004Z,1.07
2022-10-12T20:22:42.390Z,1.23
2022-10-12T20:25:09.933Z,1.13
2022-10-12T20:27:36.804Z,0.90
2022-10-12T20:30:04.558Z,1.00
2022-10-12T20:32:30.933Z,1.40
2022-10-12T20:34:57.339Z,1.10
2022-10-12T20:37:23.795Z,0.97
2022-10-12T20:39:50.959Z,1.30
2022-10-12T20:42:21.758Z,1.43
2022-10-12T20:44:48.656Z,1.43
2022-10-12T20:47:15.172Z,1.40
2022-10-12T20:49:41.881Z,1.33
2022-10-12T20:52:08.334Z,1.40
2022-10-12T20:54:35.984Z,2.17
2022-10-12T20:57:05.544Z,1.67
2022-10-12T20:59:34.408Z,1.17
2022-10-12T21:02:00.820Z,1.17
2022-10-12T21:04:27.427Z,0.90
2022-10-12T21:06:53.880Z,1.10
2022-10-12T21:09:20.324Z,1.40
2022-10-12T21:11:46.788Z,0.97
2022-10-12T21:14:13.326Z,1.13
2022-10-12T21:16:39.738Z,1.37
2022-10-12T21:19:06.132Z,1.37
2022-10-12T21:21:32.501Z,1.17
2022-10-12T21:23:59.983Z,1.00
2022-10-12T21:26:27.707Z,0.93
2022-10-12T21:28:54.446Z,1.20
2022-10-12T21:31:21.149Z,0.90
2022-10-12T21:33:47.636Z,0.90
2022-10-12T21:36:16.321Z,1.00
2022-10-12T21:38:42.835Z,1.23
2022-10-12T21:41:10.017Z,1.27
2022-10-12T21:43:36.870Z,1.07
2022-10-12T21:46:04.713Z,1.33
2022-10-12T21:48:31.595Z,1.50
2022-10-12T21:50:58.108Z,0.90
2022-10-12T21:53:24.673Z,1.43
2022-10-12T21:55:51.111Z,1.10
2022-10-12T21:58:17.550Z,1.00
2022-10-12T22:00:44.124Z,1.00
2022-10-12T22:03:10.528Z,1.00
2022-10-12T22:05:43.665Z,1.00
2022-10-12T22:08:10.447Z,1.00
2022-10-12T22:10:38.686Z,1.20
2022-10-12T22:13:05.940Z,0.93
2022-10-12T22:15:32.385Z,1.10
2022-10-12T22:17:59.196Z,0.93
2022-10-12T22:20:25.761Z,0.90
2022-10-12T22:22:52.141Z,1.20
2022-10-12T22:25:18.526Z,1.00
2022-10-12T22:27:44.907Z,0.90
2022-10-12T22:30:11.893Z,0.90
2022-10-12T22:32:38.262Z,1.00
2022-10-12T22:35:05.064Z,0.90
2022-10-12T22:37:31.463Z,1.17
2022-10-12T22:39:57.932Z,1.20
2022-10-12T22:42:24.324Z,1.00
2022-10-12T22:44:50.727Z,1.10
2022-10-12T22:47:17.107Z,1.03
2022-10-12T22:49:43.537Z,1.17
2022-10-12T22:52:09.902Z,1.00
2022-10-12T22:54:36.301Z,0.90
2022-10-12T22:57:02.667Z,1.33
2022-10-12T22:59:29.055Z,1.00
2022-10-12T23:01:55.488Z,0.90
2022-10-12T23:04:21.871Z,0.97
2022-10-12T23:06:48.312Z,1.10
2022-10-12T23:09:14.716Z,1.10
2022-10-12T23:11:41.115Z,1.10
2022-10-12T23:14:09.273Z,1.20
2022-10-12T23:16:35.683Z,0.90
2022-10-12T23:19:04.159Z,1.20
2022-10-12T23:21:30.862Z,0.90
2022-10-12T23:23:58.254Z,1.23
2022-10-12T23:26:25.011Z,1.30
2022-10-12T23:28:51.568Z,1.00
2022-10-12T23:31:21.279Z,1.10
2022-10-12T23:33:47.865Z,1.00
2022-10-12T23:36:16.024Z,0.90
2022-10-12T23:38:42.876Z,1.20
2022-10-12T23:41:09.748Z,0.90
2022-10-12T23:43:36.233Z,2.33
2022-10-12T23:46:03.873Z,1.30
2022-10-12T23:48:30.268Z,1.00
2022-10-12T23:50:56.750Z,1.17
2022-10-12T23:53:23.610Z,1.07
2022-10-12T23:55:50.654Z,1.10
2022-10-12T23:58:17.383Z,1.60
